sensor_id;sensor_type;location;lat;lon;timestamp;pressure;altitude;pressure_sealevel;temperature;humidity
77537;BME280;67783;51.656;16.106;2023-05-19T00:02:00;102777.52;;;12.87;57.82
77537;BME280;67783;51.656;16.106;2023-05-19T00:05:06;102777.41;;;12.89;55.02
77537;BME280;67783;51.656;16.106;2023-05-19T00:08:09;102768.84;;;12.81;55.64
77537;BME280;67783;51.656;16.106;2023-05-19T00:11:11;102777.02;;;12.79;54.81
77537;BME280;67783;51.656;16.106;2023-05-19T00:14:13;102779.84;;;12.76;55.26
77537;BME280;67783;51.656;16.106;2023-05-19T00:17:21;102774.77;;;12.70;57.61
77537;BME280;67783;51.656;16.106;2023-05-19T00:20:23;102766.70;;;12.70;55.10
77537;BME280;67783;51.656;16.106;2023-05-19T00:23:25;102773.01;;;12.69;56.16
77537;BME280;67783;51.656;16.106;2023-05-19T00:26:26;102774.67;;;12.72;55.38
77537;BME280;67783;51.656;16.106;2023-05-19T00:29:28;102774.77;;;12.70;56.00
77537;BME280;67783;51.656;16.106;2023-05-19T00:32:29;102776.49;;;12.71;55.53
77537;BME280;67783;51.656;16.106;2023-05-19T00:35:31;102780.21;;;12.69;56.13
77537;BME280;67783;51.656;16.106;2023-05-19T00:38:36;102779.49;;;12.65;60.20
77537;BME280;67783;51.656;16.106;2023-05-19T00:41:38;102778.55;;;12.66;56.36
77537;BME280;67783;51.656;16.106;2023-05-19T00:44:40;102777.83;;;12.63;57.62
77537;BME280;67783;51.656;16.106;2023-05-19T00:47:42;102784.94;;;12.64;56.41
77537;BME280;67783;51.656;16.106;2023-05-19T00:50:44;102785.09;;;12.61;57.23
77537;BME280;67783;51.656;16.106;2023-05-19T00:53:56;102783.55;;;12.55;60.50
77537;BME280;67783;51.656;16.106;2023-05-19T00:56:59;102789.91;;;12.54;57.16
77537;BME280;67783;51.656;16.106;2023-05-19T01:00:01;102782.92;;;12.50;58.96
77537;BME280;67783;51.656;16.106;2023-05-19T01:03:05;102785.68;;;12.48;57.77
77537;BME280;67783;51.656;16.106;2023-05-19T01:06:11;102784.96;;;12.45;58.79
77537;BME280;67783;51.656;16.106;2023-05-19T01:09:17;102794.99;;;12.41;62.20
77537;BME280;67783;51.656;16.106;2023-05-19T01:12:19;102796.00;;;12.39;58.46
77537;BME280;67783;51.656;16.106;2023-05-19T01:15:21;102799.77;;;12.35;59.90
77537;BME280;67783;51.656;16.106;2023-05-19T01:18:32;102799.93;;;12.32;58.60
77537;BME280;67783;51.656;16.106;2023-05-19T01:28:25;102788.10;;;11.97;61.86
77537;BME280;67783;51.656;16.106;2023-05-19T01:31:27;102800.02;;;11.91;59.05
77537;BME280;67783;51.656;16.106;2023-05-19T01:34:30;102802.17;;;11.83;59.26
77537;BME280;67783;51.656;16.106;2023-05-19T01:37:41;102796.92;;;11.80;61.98
77537;BME280;67783;51.656;16.106;2023-05-19T01:40:44;102799.54;;;11.82;58.88
77537;BME280;67783;51.656;16.106;2023-05-19T01:43:47;102795.45;;;11.73;60.04
77537;BME280;67783;51.656;16.106;2023-05-19T01:46:50;102805.26;;;11.74;59.04
77537;BME280;67783;51.656;16.106;2023-05-19T01:49:51;102797.38;;;11.70;59.62
77537;BME280;67783;51.656;16.106;2023-05-19T01:53:01;102794.01;;;11.65;62.85
77537;BME280;67783;51.656;16.106;2023-05-19T01:56:04;102804.84;;;11.63;59.78
77537;BME280;67783;51.656;16.106;2023-05-19T02:02:37;102811.48;;;11.54;62.95
77537;BME280;67783;51.656;16.106;2023-05-19T02:09:06;102803.43;;;11.54;60.09
77537;BME280;67783;51.656;16.106;2023-05-19T02:12:18;102811.68;;;11.50;61.44
77537;BME280;67783;51.656;16.106;2023-05-19T02:15:40;102811.00;;;11.45;63.42
77537;BME280;67783;51.656;16.106;2023-05-19T02:18:44;102814.52;;;11.47;59.98
77537;BME280;67783;51.656;16.106;2023-05-19T02:21:48;102819.05;;;11.45;60.56
77537;BME280;67783;51.656;16.106;2023-05-19T02:24:57;102818.23;;;11.43;63.28
77537;BME280;67783;51.656;16.106;2023-05-19T02:27:59;102811.88;;;11.45;60.23
77537;BME280;67783;51.656;16.106;2023-05-19T02:31:00;102818.13;;;11.46;61.49
77537;BME280;67783;51.656;16.106;2023-05-19T02:34:02;102809.20;;;11.45;60.27
77537;BME280;67783;51.656;16.106;2023-05-19T02:37:04;102805.77;;;11.42;61.29
77537;BME280;67783;51.656;16.106;2023-05-19T02:40:18;102807.48;;;11.43;63.70
77537;BME280;67783;51.656;16.106;2023-05-19T02:43:20;102807.38;;;11.46;60.62
77537;BME280;67783;51.656;16.106;2023-05-19T02:46:21;102800.26;;;11.45;62.08
77537;BME280;67783;51.656;16.106;2023-05-19T02:49:22;102793.02;;;11.47;60.59
77537;BME280;67783;51.656;16.106;2023-05-19T02:52:24;102805.63;;;11.45;61.36
77537;BME280;67783;51.656;16.106;2023-05-19T02:55:25;102803.87;;;11.44;60.73
77537;BME280;67783;51.656;16.106;2023-05-19T02:58:27;102801.33;;;11.41;61.14
77537;BME280;67783;51.656;16.106;2023-05-19T03:01:32;102800.39;;;11.42;63.82
77537;BME280;67783;51.656;16.106;2023-05-19T03:04:34;102800.26;;;11.45;60.88
77537;BME280;67783;51.656;16.106;2023-05-19T03:07:43;102800.26;;;11.45;61.50
77537;BME280;67783;51.656;16.106;2023-05-19T03:10:45;102800.06;;;11.49;60.74
77537;BME280;67783;51.656;16.106;2023-05-19T03:13:47;102805.38;;;11.51;61.04
77537;BME280;67783;51.656;16.106;2023-05-19T03:16:53;102800.00;;;11.51;63.51
77537;BME280;67783;51.656;16.106;2023-05-19T03:19:56;102798.94;;;11.55;60.86
77537;BME280;67783;51.656;16.106;2023-05-19T03:22:57;102800.65;;;11.56;61.69
77537;BME280;67783;51.656;16.106;2023-05-19T03:25:59;102803.34;;;11.56;60.89
77537;BME280;67783;51.656;16.106;2023-05-19T03:29:01;102798.94;;;11.55;61.62
77537;BME280;67783;51.656;16.106;2023-05-19T03:32:03;102798.79;;;11.58;61.10
77537;BME280;67783;51.656;16.106;2023-05-19T03:35:05;102799.72;;;11.57;61.61
77537;BME280;67783;51.656;16.106;2023-05-19T03:38:10;102800.55;;;11.59;63.70
77537;BME280;67783;51.656;16.106;2023-05-19T03:41:11;102799.18;;;11.69;60.92
77537;BME280;67783;51.656;16.106;2023-05-19T03:44:13;102793.29;;;11.81;61.66
77537;BME280;67783;51.656;16.106;2023-05-19T03:47:14;102801.52;;;12.36;60.66
77537;BME280;67783;51.656;16.106;2023-05-19T03:50:16;102797.73;;;13.49;59.07
77537;BME280;67783;51.656;16.106;2023-05-19T03:53:18;102796.66;;;14.36;56.78
77537;BME280;67783;51.656;16.106;2023-05-19T03:56:20;102796.46;;;14.39;56.14
77537;BME280;67783;51.656;16.106;2023-05-19T03:59:26;102794.29;;;14.13;56.66
77537;BME280;67783;51.656;16.106;2023-05-19T04:02:28;102797.20;;;13.93;56.95
77537;BME280;67783;51.656;16.106;2023-05-19T04:05:29;102796.92;;;13.64;57.72
77537;BME280;67783;51.656;16.106;2023-05-19T04:08:31;102800.26;;;13.52;57.65
77537;BME280;67783;51.656;16.106;2023-05-19T04:11:32;102809.27;;;13.34;58.36
77537;BME280;67783;51.656;16.106;2023-05-19T04:14:33;102808.07;;;13.22;58.49
77537;BME280;67783;51.656;16.106;2023-05-19T04:17:35;102808.88;;;13.06;58.83
77537;BME280;67783;51.656;16.106;2023-05-19T04:20:40;102806.02;;;12.91;60.87
77537;BME280;67783;51.656;16.106;2023-05-19T04:23:42;102810.90;;;12.83;59.31
77537;BME280;67783;51.656;16.106;2023-05-19T04:26:43;102808.50;;;12.77;60.18
77537;BME280;67783;51.656;16.106;2023-05-19T04:29:47;102807.40;;;12.81;59.30
77537;BME280;67783;51.656;16.106;2023-05-19T04:32:49;102804.70;;;12.81;59.64
77537;BME280;67783;51.656;16.106;2023-05-19T04:36:01;102805.81;;;12.77;61.39
77537;BME280;67783;51.656;16.106;2023-05-19T04:39:08;102804.77;;;12.80;59.54
77537;BME280;67783;51.656;16.106;2023-05-19T04:42:12;102797.73;;;12.77;60.13
77537;BME280;67783;51.656;16.106;2023-05-19T04:45:14;102801.08;;;12.82;59.75
77537;BME280;67783;51.656;16.106;2023-05-19T04:48:15;102800.91;;;12.85;60.09
77537;BME280;67783;51.656;16.106;2023-05-19T04:51:22;102804.10;;;12.93;61.77
77537;BME280;67783;51.656;16.106;2023-05-19T04:54:31;102804.19;;;13.11;59.70
77537;BME280;67783;51.656;16.106;2023-05-19T04:57:32;102800.38;;;13.15;60.10
77537;BME280;67783;51.656;16.106;2023-05-19T05:00:36;102801.67;;;13.25;59.39
77537;BME280;67783;51.656;16.106;2023-05-19T05:03:37;102802.45;;;13.27;59.66
77537;BME280;67783;51.656;16.106;2023-05-19T05:06:42;102807.91;;;13.25;60.92
77537;BME280;67783;51.656;16.106;2023-05-19T05:09:48;102812.28;;;13.28;59.59
77537;BME280;67783;51.656;16.106;2023-05-19T05:12:51;102805.15;;;13.27;60.04
77537;BME280;67783;51.656;16.106;2023-05-19T05:15:53;102804.69;;;13.36;59.61
77537;BME280;67783;51.656;16.106;2023-05-19T05:18:56;102802.87;;;13.36;59.97
77537;BME280;67783;51.656;16.106;2023-05-19T05:22:03;102814.91;;;13.47;61.29
77537;BME280;67783;51.656;16.106;2023-05-19T05:25:07;102815.30;;;13.56;59.59
77537;BME280;67783;51.656;16.106;2023-05-19T05:28:09;102821.24;;;13.63;60.20
77537;BME280;67783;51.656;16.106;2023-05-19T05:31:11;102815.30;;;13.73;59.33
77537;BME280;67783;51.656;16.106;2023-05-19T05:34:13;102815.77;;;13.81;59.54
77537;BME280;67783;51.656;16.106;2023-05-19T05:37:23;102818.88;;;13.91;60.58
77537;BME280;67783;51.656;16.106;2023-05-19T05:40:25;102820.80;;;14.05;59.07
77537;BME280;67783;51.656;16.106;2023-05-19T05:43:28;102810.64;;;14.10;59.40
77537;BME280;67783;51.656;16.106;2023-05-19T05:46:30;102804.84;;;14.17;58.89
77537;BME280;67783;51.656;16.106;2023-05-19T05:49:32;102803.70;;;14.21;58.88
77537;BME280;67783;51.656;16.106;2023-05-19T05:52:46;102809.30;;;14.34;59.65
77537;BME280;67783;51.656;16.106;2023-05-19T05:55:48;102806.07;;;14.45;58.67
77537;BME280;67783;51.656;16.106;2023-05-19T05:58:50;102804.05;;;14.48;58.78
77537;BME280;67783;51.656;16.106;2023-05-19T06:01:52;102806.95;;;14.61;58.33
77537;BME280;67783;51.656;16.106;2023-05-19T06:04:56;102815.55;;;14.67;58.33
77537;BME280;67783;51.656;16.106;2023-05-19T06:08:05;102814.09;;;14.77;59.02
77537;BME280;67783;51.656;16.106;2023-05-19T06:11:07;102810.68;;;14.90;58.11
77537;BME280;67783;51.656;16.106;2023-05-19T06:14:09;102816.52;;;14.98;58.35
77537;BME280;67783;51.656;16.106;2023-05-19T06:17:11;102805.69;;;15.13;57.79
77537;BME280;67783;51.656;16.106;2023-05-19T06:20:13;102814.70;;;15.28;57.59
77537;BME280;67783;51.656;16.106;2023-05-19T06:23:14;102811.12;;;15.43;57.21
77537;BME280;67783;51.656;16.106;2023-05-19T06:26:16;102823.92;;;15.55;57.05
77537;BME280;67783;51.656;16.106;2023-05-19T06:29:21;102826.65;;;15.69;57.07
77537;BME280;67783;51.656;16.106;2023-05-19T06:32:22;102833.34;;;15.78;56.55
77537;BME280;67783;51.656;16.106;2023-05-19T06:35:24;102831.51;;;15.79;56.38
77537;BME280;67783;51.656;16.106;2023-05-19T06:38:25;102837.43;;;15.85;56.41
77537;BME280;67783;51.656;16.106;2023-05-19T06:41:27;102835.40;;;15.89;56.43
77537;BME280;67783;51.656;16.106;2023-05-19T06:44:28;102836.95;;;16.07;56.20
77537;BME280;67783;51.656;16.106;2023-05-19T06:47:30;102834.47;;;16.18;55.88
77537;BME280;67783;51.656;16.106;2023-05-19T06:50:35;102830.88;;;16.18;55.77
77537;BME280;67783;51.656;16.106;2023-05-19T06:53:37;102837.37;;;16.29;55.90
77537;BME280;67783;51.656;16.106;2023-05-19T06:56:38;102838.13;;;16.45;55.58
77537;BME280;67783;51.656;16.106;2023-05-19T06:59:40;102841.92;;;16.57;55.17
77537;BME280;67783;51.656;16.106;2023-05-19T07:02:47;102842.51;;;16.62;54.91
77537;BME280;67783;51.656;16.106;2023-05-19T07:05:56;102839.50;;;16.81;53.70
77537;BME280;67783;51.656;16.106;2023-05-19T07:08:58;102838.20;;;16.86;53.84
77537;BME280;67783;51.656;16.106;2023-05-19T07:11:59;102840.91;;;16.86;53.53
77537;BME280;67783;51.656;16.106;2023-05-19T07:15:01;102839.08;;;16.87;53.54
77537;BME280;67783;51.656;16.106;2023-05-19T07:18:03;102836.28;;;16.88;53.77
77537;BME280;67783;51.656;16.106;2023-05-19T07:21:04;102844.64;;;16.98;53.42
77537;BME280;67783;51.656;16.106;2023-05-19T07:24:07;102834.53;;;16.87;53.46
77537;BME280;67783;51.656;16.106;2023-05-19T07:27:12;102834.53;;;16.87;53.02
77537;BME280;67783;51.656;16.106;2023-05-19T07:30:14;102838.93;;;17.02;53.54
77537;BME280;67783;51.656;16.106;2023-05-19T07:33:15;102831.88;;;17.00;52.67
77537;BME280;67783;51.656;16.106;2023-05-19T07:36:16;102824.41;;;17.03;52.94
77537;BME280;67783;51.656;16.106;2023-05-19T07:39:18;102832.03;;;17.11;53.11
77537;BME280;67783;51.656;16.106;2023-05-19T07:42:20;102818.52;;;17.24;53.01
77537;BME280;67783;51.656;16.106;2023-05-19T07:45:21;102823.90;;;17.38;52.63
77537;BME280;67783;51.656;16.106;2023-05-19T07:48:27;102814.67;;;17.40;51.74
77537;BME280;67783;51.656;16.106;2023-05-19T07:51:29;102812.22;;;17.50;52.05
77537;BME280;67783;51.656;16.106;2023-05-19T07:54:31;102812.05;;;17.26;51.94
77537;BME280;67783;51.656;16.106;2023-05-19T07:57:33;102805.10;;;17.22;52.02
77537;BME280;67783;51.656;16.106;2023-05-19T08:00:34;102805.29;;;17.19;51.89
77537;BME280;67783;51.656;16.106;2023-05-19T08:03:47;102812.88;;;17.14;51.21
77537;BME280;67783;51.656;16.106;2023-05-19T08:06:49;102811.57;;;17.20;51.72
77537;BME280;67783;51.656;16.106;2023-05-19T08:09:52;102770.83;;;16.94;51.75
77537;BME280;67783;51.656;16.106;2023-05-19T08:12:54;102813.28;;;17.35;51.78
77537;BME280;67783;51.656;16.106;2023-05-19T08:15:56;102811.98;;;17.40;51.17
77537;BME280;67783;51.656;16.106;2023-05-19T08:19:08;102804.62;;;17.42;49.35
77537;BME280;67783;51.656;16.106;2023-05-19T08:22:10;102807.77;;;17.49;50.24
77537;BME280;67783;51.656;16.106;2023-05-19T08:25:11;102805.70;;;17.52;49.61
77537;BME280;67783;51.656;16.106;2023-05-19T08:28:14;102804.48;;;17.71;50.33
77537;BME280;67783;51.656;16.106;2023-05-19T08:31:16;102801.55;;;17.86;49.17
77537;BME280;67783;51.656;16.106;2023-05-19T08:34:28;102803.17;;;17.89;47.74
77537;BME280;67783;51.656;16.106;2023-05-19T08:37:30;102805.90;;;18.14;48.75
77537;BME280;67783;51.656;16.106;2023-05-19T08:40:32;102800.59;;;18.25;47.89
77537;BME280;67783;51.656;16.106;2023-05-19T08:43:35;102803.41;;;18.11;47.61
77537;BME280;67783;51.656;16.106;2023-05-19T08:46:37;102807.44;;;17.93;47.79
77537;BME280;67783;51.656;16.106;2023-05-19T08:49:52;102806.66;;;17.91;47.28
77537;BME280;67783;51.656;16.106;2023-05-19T08:56:12;102807.95;;;17.85;47.25
77537;BME280;67783;51.656;16.106;2023-05-19T08:59:16;102804.04;;;17.77;45.71
77537;BME280;67783;51.656;16.106;2023-05-19T09:02:20;102796.90;;;17.76;47.13
77537;BME280;67783;51.656;16.106;2023-05-19T09:05:22;102792.76;;;17.83;46.34
77537;BME280;67783;51.656;16.106;2023-05-19T09:08:24;102800.82;;;17.97;46.89
77537;BME280;67783;51.656;16.106;2023-05-19T09:11:26;102792.54;;;18.11;45.93
77537;BME280;67783;51.656;16.106;2023-05-19T09:14:37;102791.47;;;18.14;44.75
77537;BME280;67783;51.656;16.106;2023-05-19T09:17:39;102788.63;;;18.15;46.02
77537;BME280;67783;51.656;16.106;2023-05-19T09:20:44;102779.51;;;18.29;45.76
77537;BME280;67783;51.656;16.106;2023-05-19T09:23:46;102780.65;;;18.50;45.70
77537;BME280;67783;51.656;16.106;2023-05-19T09:26:49;102778.61;;;18.54;45.31
77537;BME280;67783;51.656;16.106;2023-05-19T09:33:10;102781.88;;;18.59;46.03
77537;BME280;67783;51.656;16.106;2023-05-19T09:36:16;102785.55;;;18.58;45.34
77537;BME280;67783;51.656;16.106;2023-05-19T09:39:23;102777.52;;;18.56;44.33
77537;BME280;67783;51.656;16.106;2023-05-19T09:42:28;102784.35;;;18.62;45.57
77537;BME280;67783;51.656;16.106;2023-05-19T09:45:30;102782.94;;;18.43;45.67
77537;BME280;67783;51.656;16.106;2023-05-19T09:48:33;102795.13;;;18.38;45.83
77537;BME280;67783;51.656;16.106;2023-05-19T09:51:36;102791.77;;;18.34;45.98
77537;BME280;67783;51.656;16.106;2023-05-19T09:54:44;102799.26;;;18.31;45.37
77537;BME280;67783;51.656;16.106;2023-05-19T09:57:46;102796.02;;;18.26;46.34
77537;BME280;67783;51.656;16.106;2023-05-19T10:00:49;102791.47;;;18.14;46.24
77537;BME280;67783;51.656;16.106;2023-05-19T10:03:52;102787.34;;;18.08;46.00
77537;BME280;67783;51.656;16.106;2023-05-19T10:06:55;102782.66;;;17.97;45.88
77537;BME280;67783;51.656;16.106;2023-05-19T10:10:08;102790.60;;;17.88;45.25
77537;BME280;67783;51.656;16.106;2023-05-19T10:13:12;102792.12;;;17.79;45.67
77537;BME280;67783;51.656;16.106;2023-05-19T10:16:14;102782.33;;;17.77;46.01
77537;BME280;67783;51.656;16.106;2023-05-19T10:19:19;102778.32;;;17.70;46.29
77537;BME280;67783;51.656;16.106;2023-05-19T10:22:22;102763.88;;;17.69;46.54
77537;BME280;67783;51.656;16.106;2023-05-19T10:25:29;102766.49;;;17.58;46.63
77537;BME280;67783;51.656;16.106;2023-05-19T10:28:36;102768.66;;;17.66;46.83
77537;BME280;67783;51.656;16.106;2023-05-19T10:31:39;102770.18;;;17.70;46.92
77537;BME280;67783;51.656;16.106;2023-05-19T10:41:23;102765.21;;;17.76;46.47
77537;BME280;67783;51.656;16.106;2023-05-19T10:47:45;102759.09;;;17.73;46.79
77537;BME280;67783;51.656;16.106;2023-05-19T10:50:47;102764.86;;;17.81;47.04
77537;BME280;67783;51.656;16.106;2023-05-19T10:54:01;102755.01;;;17.92;46.33
77537;BME280;67783;51.656;16.106;2023-05-19T10:57:03;102752.61;;;18.01;45.76
77537;BME280;67783;51.656;16.106;2023-05-19T11:03:25;102757.70;;;18.05;45.87
77537;BME280;67783;51.656;16.106;2023-05-19T11:06:28;102762.83;;;17.97;45.86
77537;BME280;67783;51.656;16.106;2023-05-19T11:09:30;102757.16;;;17.75;46.32
77537;BME280;67783;51.656;16.106;2023-05-19T11:12:40;102750.77;;;17.76;46.88
77537;BME280;67783;51.656;16.106;2023-05-19T11:15:44;102755.75;;;17.82;47.13
77537;BME280;67783;51.656;16.106;2023-05-19T11:18:48;102746.96;;;17.91;47.06
77537;BME280;67783;51.656;16.106;2023-05-19T11:21:51;102748.24;;;17.98;46.74
77537;BME280;67783;51.656;16.106;2023-05-19T11:24:55;102745.22;;;17.90;46.93
77537;BME280;67783;51.656;16.106;2023-05-19T11:27:58;102744.34;;;18.02;47.06
77537;BME280;67783;51.656;16.106;2023-05-19T11:31:01;102757.40;;;17.97;47.45
77537;BME280;67783;51.656;16.106;2023-05-19T11:34:09;102758.91;;;17.88;47.36
77537;BME280;67783;51.656;16.106;2023-05-19T11:37:11;102757.73;;;17.92;47.29
77537;BME280;67783;51.656;16.106;2023-05-19T11:40:14;102754.88;;;17.94;47.56
77537;BME280;67783;51.656;16.106;2023-05-19T11:43:16;102758.05;;;18.01;47.71
77537;BME280;67783;51.656;16.106;2023-05-19T11:46:17;102762.27;;;17.92;47.97
77537;BME280;67783;51.656;16.106;2023-05-19T11:49:29;102753.49;;;17.88;48.08
77537;BME280;67783;51.656;16.106;2023-05-19T11:52:31;102752.16;;;17.81;48.16
77537;BME280;67783;51.656;16.106;2023-05-19T11:55:32;102754.13;;;17.67;48.34
77537;BME280;67783;51.656;16.106;2023-05-19T11:58:36;102756.52;;;17.71;48.35
77537;BME280;67783;51.656;16.106;2023-05-19T12:01:37;102760.30;;;17.69;48.67
77537;BME280;67783;51.656;16.106;2023-05-19T12:04:39;102766.50;;;17.83;48.60
77537;BME280;67783;51.656;16.106;2023-05-19T12:07:40;102753.91;;;17.95;48.51
77537;BME280;67783;51.656;16.106;2023-05-19T12:10:49;102756.85;;;17.92;47.69
77537;BME280;67783;51.656;16.106;2023-05-19T12:13:56;102745.68;;;17.96;48.24
77537;BME280;67783;51.656;16.106;2023-05-19T12:17:08;102754.64;;;18.10;48.08
77537;BME280;67783;51.656;16.106;2023-05-19T12:20:12;102746.48;;;18.22;48.32
77537;BME280;67783;51.656;16.106;2023-05-19T12:23:14;102748.20;;;18.36;48.28
77537;BME280;67783;51.656;16.106;2023-05-19T12:26:16;102746.42;;;18.48;48.02
77537;BME280;67783;51.656;16.106;2023-05-19T12:29:27;102745.79;;;18.57;47.56
77537;BME280;67783;51.656;16.106;2023-05-19T12:32:32;102747.05;;;18.51;47.82
77537;BME280;67783;51.656;16.106;2023-05-19T12:35:36;102747.29;;;18.48;47.09
77537;BME280;67783;51.656;16.106;2023-05-19T12:38:38;102742.09;;;18.45;47.73
77537;BME280;67783;51.656;16.106;2023-05-19T12:41:44;102738.84;;;18.40;47.98
77537;BME280;67783;51.656;16.106;2023-05-19T12:44:48;102747.13;;;18.38;48.01
77537;BME280;67783;51.656;16.106;2023-05-19T12:47:52;102748.66;;;18.30;48.33
77537;BME280;67783;51.656;16.106;2023-05-19T12:50:57;102750.39;;;18.18;48.68
77537;BME280;67783;51.656;16.106;2023-05-19T12:54:01;102753.66;;;18.11;48.65
77537;BME280;67783;51.656;16.106;2023-05-19T12:57:04;102752.95;;;17.96;49.25
77537;BME280;67783;51.656;16.106;2023-05-19T13:00:15;102757.16;;;17.75;49.37
77537;BME280;67783;51.656;16.106;2023-05-19T13:03:24;102764.28;;;17.50;49.93
77537;BME280;67783;51.656;16.106;2023-05-19T13:06:29;102757.74;;;17.40;50.91
77537;BME280;67783;51.656;16.106;2023-05-19T13:09:33;102759.05;;;17.35;50.46
77537;BME280;67783;51.656;16.106;2023-05-19T13:12:36;102757.94;;;17.25;51.29
77537;BME280;67783;51.656;16.106;2023-05-19T13:15:43;102759.36;;;17.30;50.76
77537;BME280;67783;51.656;16.106;2023-05-19T13:18:45;102762.26;;;17.27;51.21
77537;BME280;67783;51.656;16.106;2023-05-19T13:21:50;102762.07;;;17.30;51.50
77537;BME280;67783;51.656;16.106;2023-05-19T13:24:52;102755.99;;;17.39;50.91
77537;BME280;67783;51.656;16.106;2023-05-19T13:27:54;102757.96;;;17.37;50.86
77537;BME280;67783;51.656;16.106;2023-05-19T13:31:01;102752.60;;;17.23;51.00
77537;BME280;67783;51.656;16.106;2023-05-19T13:34:02;102759.34;;;17.18;51.60
77537;BME280;67783;51.656;16.106;2023-05-19T13:37:10;102741.54;;;16.87;52.75
77537;BME280;67783;51.656;16.106;2023-05-19T13:40:13;102756.05;;;16.86;52.18
77537;BME280;67783;51.656;16.106;2023-05-19T13:43:15;102754.37;;;16.71;52.66
77537;BME280;67783;51.656;16.106;2023-05-19T13:46:17;102762.43;;;16.58;52.92
77537;BME280;67783;51.656;16.106;2023-05-19T13:49:19;102762.70;;;16.53;52.88
77537;BME280;67783;51.656;16.106;2023-05-19T13:52:31;102756.52;;;16.51;53.85
77537;BME280;67783;51.656;16.106;2023-05-19T13:55:33;102750.44;;;16.48;53.48
77537;BME280;67783;51.656;16.106;2023-05-19T13:58:35;102748.03;;;16.43;53.78
77537;BME280;67783;51.656;16.106;2023-05-19T14:01:36;102751.80;;;16.41;53.67
77537;BME280;67783;51.656;16.106;2023-05-19T14:04:38;102740.21;;;16.39;53.76
77537;BME280;67783;51.656;16.106;2023-05-19T14:07:40;102746.08;;;16.45;53.49
77537;BME280;67783;51.656;16.106;2023-05-19T14:10:45;102743.29;;;16.47;53.90
77537;BME280;67783;51.656;16.106;2023-05-19T14:13:48;102751.99;;;16.52;54.36
77537;BME280;67783;51.656;16.106;2023-05-19T14:16:51;102757.27;;;16.53;53.85
77537;BME280;67783;51.656;16.106;2023-05-19T14:19:52;102750.54;;;16.46;54.46
77537;BME280;67783;51.656;16.106;2023-05-19T14:22:54;102759.98;;;16.53;54.18
77537;BME280;67783;51.656;16.106;2023-05-19T14:25:56;102750.04;;;16.54;54.41
77537;BME280;67783;51.656;16.106;2023-05-19T14:29:08;102750.82;;;16.56;55.21
77537;BME280;67783;51.656;16.106;2023-05-19T14:32:09;102756.14;;;16.57;54.19
77537;BME280;67783;51.656;16.106;2023-05-19T14:35:11;102753.70;;;16.53;54.53
77537;BME280;67783;51.656;16.106;2023-05-19T14:40:40;102752.48;;;16.58;54.28
77537;BME280;67783;51.656;16.106;2023-05-19T14:43:41;102753.43;;;16.57;54.84
77537;BME280;67783;51.656;16.106;2023-05-19T14:46:43;102754.02;;;16.63;54.64
77537;BME280;67783;51.656;16.106;2023-05-19T14:49:44;102751.78;;;16.55;55.10
77537;BME280;67783;51.656;16.106;2023-05-19T14:52:46;102750.73;;;16.57;54.97
77537;BME280;67783;51.656;16.106;2023-05-19T14:55:48;102747.41;;;16.52;55.13
77537;BME280;67783;51.656;16.106;2023-05-19T14:58:54;102748.03;;;16.43;56.17
77537;BME280;67783;51.656;16.106;2023-05-19T15:01:56;102747.41;;;16.52;54.91
77537;BME280;67783;51.656;16.106;2023-05-19T15:04:57;102747.03;;;16.44;55.65
77537;BME280;67783;51.656;16.106;2023-05-19T15:08:01;102744.55;;;16.41;55.63
77537;BME280;67783;51.656;16.106;2023-05-19T15:11:03;102757.13;;;16.42;55.57
77537;BME280;67783;51.656;16.106;2023-05-19T15:14:15;102743.01;;;16.37;56.71
77537;BME280;67783;51.656;16.106;2023-05-19T15:17:17;102744.75;;;16.38;55.96
77537;BME280;67783;51.656;16.106;2023-05-19T15:20:18;102746.88;;;16.33;56.47
77537;BME280;67783;51.656;16.106;2023-05-19T15:23:20;102741.38;;;16.35;56.13
77537;BME280;67783;51.656;16.106;2023-05-19T15:26:22;102731.63;;;16.18;56.36
77537;BME280;67783;51.656;16.106;2023-05-19T15:29:24;102742.25;;;16.35;55.73
77537;BME280;67783;51.656;16.106;2023-05-19T15:32:25;102744.84;;;16.37;56.13
77537;BME280;67783;51.656;16.106;2023-05-19T15:35:30;102742.34;;;16.34;57.46
77537;BME280;67783;51.656;16.106;2023-05-19T15:38:34;102742.04;;;16.38;56.29
77537;BME280;67783;51.656;16.106;2023-05-19T15:41:37;102735.39;;;16.30;56.78
77537;BME280;67783;51.656;16.106;2023-05-19T15:44:38;102735.84;;;16.36;56.24
77537;BME280;67783;51.656;16.106;2023-05-19T15:47:40;102728.71;;;16.35;56.48
77537;BME280;67783;51.656;16.106;2023-05-19T15:50:51;102728.71;;;16.35;57.41
77537;BME280;67783;51.656;16.106;2023-05-19T15:53:52;102727.93;;;16.33;56.70
77537;BME280;67783;51.656;16.106;2023-05-19T15:56:54;102725.22;;;16.33;56.88
77537;BME280;67783;51.656;16.106;2023-05-19T15:59:56;102724.84;;;16.39;56.47
77537;BME280;67783;51.656;16.106;2023-05-19T16:02:57;102727.56;;;16.25;57.08
77537;BME280;67783;51.656;16.106;2023-05-19T16:05:59;102722.52;;;16.33;56.71
77537;BME280;67783;51.656;16.106;2023-05-19T16:09:01;102727.19;;;16.31;56.93
77537;BME280;67783;51.656;16.106;2023-05-19T16:12:06;102729.88;;;16.31;57.81
77537;BME280;67783;51.656;16.106;2023-05-19T16:15:08;102728.71;;;16.35;56.65
77537;BME280;67783;51.656;16.106;2023-05-19T16:18:10;102728.15;;;16.30;57.26
77537;BME280;67783;51.656;16.106;2023-05-19T16:21:11;102736.46;;;16.27;57.15
77537;BME280;67783;51.656;16.106;2023-05-19T16:24:13;102729.51;;;16.23;57.38